createdAt,value
2022-10-07T00:00:47.035Z,96.16
2022-10-07T00:01:47.125Z,96.41
2022-10-07T00:02:46.966Z,96.72
2022-10-07T00:04:46.939Z,95.63
2022-10-07T00:05:46.930Z,95.22
2022-10-07T00:06:46.913Z,95.42
2022-10-07T00:07:47.189Z,95.94
2022-10-07T00:08:46.886Z,96.25
2022-10-07T00:09:46.874Z,96.56
2022-10-07T00:10:46.862Z,96.66
2022-10-07T00:11:46.849Z,96.56
2022-10-07T00:12:46.859Z,96.46
2022-10-07T00:13:46.831Z,96.15
2022-10-07T00:15:46.808Z,95.37
2022-10-07T00:16:46.887Z,95.10
2022-10-07T00:17:47.024Z,95.10
2022-10-07T00:18:46.770Z,94.89
2022-10-07T00:19:46.768Z,94.21
2022-10-07T00:20:46.747Z,94.42
2022-10-07T00:21:46.728Z,94.57
2022-10-07T00:22:46.714Z,94.67
2022-10-07T00:23:46.705Z,94.67
2022-10-07T00:24:46.689Z,94.61
2022-10-07T00:26:46.665Z,95.50
2022-10-07T00:27:47.035Z,95.91
2022-10-07T00:28:46.660Z,96.08
2022-10-07T00:29:46.625Z,95.87
2022-10-07T00:30:46.696Z,95.60
2022-10-07T00:31:46.603Z,95.08
2022-10-07T00:32:46.595Z,95.39
2022-10-07T00:33:46.585Z,96.12
2022-10-07T00:34:46.568Z,96.39
2022-10-07T00:35:46.531Z,96.69
2022-10-07T00:37:47.108Z,97.38
2022-10-07T00:38:46.481Z,97.38
2022-10-07T00:39:46.467Z,96.65
2022-10-07T00:40:46.457Z,96.49
2022-10-07T00:41:46.444Z,96.59
2022-10-07T00:42:46.430Z,96.18
2022-10-07T00:43:46.419Z,96.18
2022-10-07T00:44:46.567Z,96.12
2022-10-07T00:45:46.483Z,96.02
2022-10-07T00:46:46.380Z,96.12
2022-10-07T00:48:46.355Z,96.53
2022-10-07T00:49:46.341Z,96.22
2022-10-07T00:50:46.330Z,96.53
2022-10-07T00:51:46.317Z,96.12
2022-10-07T00:52:46.306Z,95.81
2022-10-07T00:53:46.293Z,95.70
2022-10-07T00:54:46.279Z,95.50
2022-10-07T00:55:46.268Z,95.13
2022-10-07T00:56:46.255Z,95.03
2022-10-07T00:57:46.864Z,95.13
2022-10-07T00:59:46.215Z,94.76
2022-10-07T01:00:46.229Z,94.86
2022-10-07T01:01:46.191Z,94.76
2022-10-07T01:02:46.251Z,94.86
2022-10-07T01:03:46.165Z,94.86
2022-10-07T01:04:46.156Z,94.45
2022-10-07T01:05:46.140Z,94.03
2022-10-07T01:06:46.128Z,94.92
2022-10-07T01:07:46.845Z,95.75
2022-10-07T01:08:46.104Z,96.12
2022-10-07T01:10:46.078Z,96.12
2022-10-07T01:11:46.065Z,96.06
2022-10-07T01:12:46.056Z,95.85
2022-10-07T01:13:46.041Z,95.38
2022-10-07T01:14:46.031Z,95.17
2022-10-07T01:15:46.019Z,95.17
2022-10-07T01:16:46.080Z,94.86
2022-10-07T01:17:46.438Z,94.97
2022-10-07T01:18:45.985Z,95.13
2022-10-07T01:19:45.965Z,95.23
2022-10-07T01:21:45.943Z,95.34
2022-10-07T01:22:45.929Z,94.61
2022-10-07T01:23:45.915Z,94.30
2022-10-07T01:24:45.903Z,94.03
2022-10-07T01:25:45.889Z,94.20
2022-10-07T01:26:45.877Z,94.72
2022-10-07T01:27:46.308Z,95.23
2022-10-07T01:28:45.852Z,95.44
2022-10-07T01:29:45.840Z,95.44
2022-10-07T01:30:45.879Z,95.64
2022-10-07T01:32:45.827Z,94.55
2022-10-07T01:33:45.789Z,94.03
2022-10-07T01:34:45.775Z,94.39
2022-10-07T01:35:45.764Z,94.59
2022-10-07T01:36:45.751Z,94.80
2022-10-07T01:37:46.408Z,94.90
2022-10-07T01:38:45.726Z,95.01
2022-10-07T01:39:45.714Z,95.22
2022-10-07T01:40:45.701Z,95.22
2022-10-07T01:41:45.690Z,95.26
2022-10-07T01:43:45.666Z,94.74
2022-10-07T01:44:45.650Z,94.26
2022-10-07T01:45:45.683Z,94.16
2022-10-07T01:46:45.624Z,93.95
2022-10-07T01:47:46.162Z,94.22
2022-10-07T01:48:45.622Z,94.74
2022-10-07T01:49:45.586Z,95.01
2022-10-07T01:50:45.576Z,95.11
2022-10-07T01:51:45.561Z,95.28
2022-10-07T01:52:45.549Z,95.28
2022-10-07T01:54:45.522Z,95.17
2022-10-07T01:55:45.510Z,95.17
2022-10-07T01:56:45.496Z,95.38
2022-10-07T01:57:45.875Z,94.97
2022-10-07T01:58:45.472Z,94.55
2022-10-07T01:59:45.458Z,94.28
2022-10-07T02:00:45.445Z,94.86
2022-10-07T02:01:45.539Z,95.17
2022-10-07T02:02:45.419Z,95.13
2022-10-07T02:03:45.463Z,94.40
2022-10-07T02:05:45.402Z,93.89
2022-10-07T02:06:45.381Z,93.84
2022-10-07T02:07:45.791Z,94.15
2022-10-07T02:08:45.448Z,93.74
2022-10-07T02:09:45.333Z,93.53
2022-10-07T02:10:45.322Z,93.74
2022-10-07T02:11:45.306Z,93.84
2022-10-07T02:12:45.292Z,94.05
2022-10-07T02:13:45.280Z,93.89
2022-10-07T02:14:45.266Z,93.26
2022-10-07T02:16:45.241Z,93.72
2022-10-07T02:17:45.828Z,94.03
2022-10-07T02:18:45.217Z,94.14
2022-10-07T02:19:45.206Z,93.82
2022-10-07T02:20:45.213Z,93.14
2022-10-07T02:21:45.180Z,93.04
2022-10-07T02:22:45.166Z,92.67
2022-10-07T02:23:45.155Z,92.98
2022-10-07T02:24:45.141Z,93.39
2022-10-07T02:25:45.131Z,93.23
2022-10-07T02:27:45.405Z,93.07
2022-10-07T02:28:45.089Z,94.73
2022-10-07T02:29:45.078Z,95.30
2022-10-07T02:30:45.083Z,95.82
2022-10-07T02:31:45.053Z,96.61
2022-10-07T02:32:45.039Z,96.82
2022-10-07T02:33:45.027Z,96.71
2022-10-07T02:34:45.013Z,96.50
2022-10-07T02:35:45.001Z,96.50
2022-10-07T02:36:45.119Z,96.50
2022-10-07T02:38:44.962Z,95.78
2022-10-07T02:39:44.950Z,95.57
2022-10-07T02:40:44.939Z,95.51
2022-10-07T02:41:44.925Z,95.41
2022-10-07T02:42:44.911Z,95.61
2022-10-07T02:43:44.898Z,94.89
2022-10-07T02:44:44.885Z,94.78
2022-10-07T02:45:44.873Z,95.30
2022-10-07T02:46:44.926Z,95.26
2022-10-07T02:47:45.234Z,95.26
2022-10-07T02:49:44.823Z,95.47
2022-10-07T02:50:44.808Z,95.36
2022-10-07T02:51:44.797Z,95.47
2022-10-07T02:52:44.816Z,95.36
2022-10-07T02:53:44.772Z,96.92
2022-10-07T02:54:44.757Z,97.49
2022-10-07T02:55:44.746Z,97.70
2022-10-07T02:56:44.731Z,97.55
2022-10-07T02:57:45.056Z,97.66
2022-10-07T02:58:44.706Z,97.35
2022-10-07T03:00:44.680Z,96.62
2022-10-07T03:01:44.705Z,96.20
2022-10-07T03:02:44.654Z,95.38
2022-10-07T03:03:44.698Z,95.48
2022-10-07T03:04:44.629Z,95.38
2022-10-07T03:05:44.619Z,95.75
2022-10-07T03:06:44.609Z,95.44
2022-10-07T03:07:44.882Z,95.13
2022-10-07T03:08:44.601Z,95.23
2022-10-07T03:09:44.566Z,95.34
2022-10-07T03:11:44.542Z,95.91
2022-10-07T03:12:44.528Z,96.12
2022-10-07T03:13:44.522Z,96.33
2022-10-07T03:14:44.503Z,96.28
2022-10-07T03:15:44.563Z,96.39
2022-10-07T03:16:44.476Z,96.49
2022-10-07T03:17:44.800Z,96.28
2022-10-07T03:18:44.452Z,96.59
2022-10-07T03:19:44.443Z,96.59
2022-10-07T03:20:44.424Z,96.69
2022-10-07T03:22:44.399Z,97.00
2022-10-07T03:23:44.389Z,97.07
2022-10-07T03:24:44.398Z,97.07
2022-10-07T03:25:44.365Z,97.38
2022-10-07T03:26:44.350Z,97.48
2022-10-07T03:27:44.635Z,97.58
2022-10-07T03:28:44.421Z,97.54
2022-10-07T03:29:44.316Z,97.33
2022-10-07T03:30:44.302Z,96.92
2022-10-07T03:31:44.294Z,96.92
2022-10-07T03:33:44.270Z,97.12
2022-10-07T03:34:44.256Z,97.22
2022-10-07T03:35:44.242Z,97.02
2022-10-07T03:36:44.227Z,97.02
2022-10-07T03:37:44.485Z,97.22
2022-10-07T03:38:44.205Z,97.22
2022-10-07T03:39:44.191Z,97.29
2022-10-07T03:40:44.215Z,97.29
2022-10-07T03:41:44.166Z,97.29
2022-10-07T03:42:44.149Z,97.18
2022-10-07T03:44:44.124Z,97.08
2022-10-07T03:45:44.112Z,97.03
2022-10-07T03:46:44.135Z,97.29
2022-10-07T03:47:44.440Z,97.08
2022-10-07T03:48:44.071Z,97.18
2022-10-07T03:49:44.057Z,97.80
2022-10-07T03:50:44.043Z,98.63
2022-10-07T03:51:44.033Z,98.32
2022-10-07T03:52:44.017Z,98.48
2022-10-07T03:53:44.005Z,98.58
2022-10-07T03:55:43.981Z,98.38
2022-10-07T03:56:43.989Z,98.17
2022-10-07T03:57:44.176Z,98.07
2022-10-07T03:58:43.941Z,97.92
2022-10-07T03:59:43.926Z,97.82
2022-10-07T04:00:43.910Z,97.50
2022-10-07T04:01:43.965Z,97.61
2022-10-07T04:02:43.960Z,97.40
2022-10-07T04:03:43.879Z,97.40
2022-10-07T04:04:43.859Z,97.36
2022-10-07T04:06:43.834Z,97.46
2022-10-07T04:07:44.066Z,97.15
2022-10-07T04:08:43.809Z,97.05
2022-10-07T04:09:43.796Z,97.15
2022-10-07T04:10:43.781Z,96.94
2022-10-07T04:11:43.769Z,96.90
2022-10-07T04:12:43.778Z,96.80
2022-10-07T04:13:43.744Z,96.63
2022-10-07T04:14:43.729Z,96.59
2022-10-07T04:15:43.718Z,96.69
2022-10-07T04:17:43.895Z,96.02
2022-10-07T04:18:43.678Z,96.43
2022-10-07T04:19:43.665Z,96.43
2022-10-07T04:20:43.653Z,96.22
2022-10-07T04:21:43.637Z,96.06
2022-10-07T04:22:43.634Z,96.72
2022-10-07T04:23:43.611Z,97.08
2022-10-07T04:24:43.596Z,97.70
2022-10-07T04:25:43.584Z,98.05
2022-10-07T04:26:43.570Z,98.88
2022-10-07T04:28:43.677Z,99.45
2022-10-07T04:29:43.533Z,99.45
2022-10-07T04:30:43.523Z,99.31
2022-10-07T04:31:43.556Z,99.20
2022-10-07T04:32:43.491Z,99.10
2022-10-07T04:33:43.480Z,99.10
2022-10-07T04:34:43.464Z,98.89
2022-10-07T04:35:43.451Z,99.35
2022-10-07T04:36:43.438Z,99.51
2022-10-07T04:37:43.827Z,99.41
2022-10-07T04:40:43.384Z,99.06
2022-10-07T04:41:43.372Z,98.85
2022-10-07T04:42:43.358Z,98.69
2022-10-07T04:43:43.345Z,98.49
2022-10-07T04:44:43.354Z,98.39
2022-10-07T04:45:43.318Z,98.29
2022-10-07T04:46:43.365Z,98.08
2022-10-07T04:47:43.701Z,98.08
2022-10-07T04:48:43.276Z,98.08
2022-10-07T04:50:43.249Z,97.66
2022-10-07T04:51:43.239Z,97.92
2022-10-07T04:52:43.223Z,97.92
2022-10-07T04:53:43.210Z,97.92
2022-10-07T04:54:43.198Z,97.66
2022-10-07T04:55:43.184Z,97.19
2022-10-07T04:56:43.170Z,97.34
2022-10-07T04:57:43.595Z,97.70
2022-10-07T04:58:43.144Z,98.32
2022-10-07T04:59:43.371Z,98.63
2022-10-07T05:01:43.158Z,98.89
2022-10-07T05:02:43.092Z,98.42
2022-10-07T05:03:43.081Z,98.73
2022-10-07T05:04:43.065Z,98.67
2022-10-07T05:05:43.083Z,99.40
2022-10-07T05:06:43.038Z,99.45
2022-10-07T05:07:43.448Z,99.56
2022-10-07T05:08:43.011Z,99.35
2022-10-07T05:09:42.998Z,98.73
2022-10-07T05:10:42.985Z,99.09
2022-10-07T05:12:42.958Z,99.50
2022-10-07T05:13:42.947Z,99.50
2022-10-07T05:14:42.931Z,99.40
2022-10-07T05:15:42.925Z,99.65
2022-10-07T05:16:42.986Z,99.75
2022-10-07T05:17:43.197Z,99.99
2022-10-07T05:18:42.882Z,99.99
2022-10-07T05:19:42.875Z,99.99
2022-10-07T05:20:42.859Z,99.99
2022-10-07T05:21:42.851Z,99.99
2022-10-07T05:23:42.815Z,99.99
2022-10-07T05:24:42.799Z,99.99
2022-10-07T05:25:42.789Z,99.99
2022-10-07T05:26:42.772Z,99.99
2022-10-07T05:27:43.082Z,99.99
2022-10-07T05:28:42.846Z,99.99
2022-10-07T05:29:42.741Z,99.76
2022-10-07T05:30:42.726Z,99.97
2022-10-07T05:31:42.809Z,99.87
2022-10-07T05:32:42.719Z,99.76
2022-10-07T05:34:42.667Z,99.56
2022-10-07T05:35:42.656Z,99.45
2022-10-07T05:36:42.642Z,99.20
2022-10-07T05:37:45.415Z,99.41
2022-10-07T05:38:42.615Z,99.20
2022-10-07T05:39:42.604Z,97.80
2022-10-07T05:40:42.588Z,97.54
2022-10-07T05:41:45.700Z,97.99
2022-10-07T05:42:42.563Z,98.41
2022-10-07T05:43:42.547Z,98.72
2022-10-07T05:45:42.575Z,98.98
2022-10-07T05:46:42.511Z,99.09
2022-10-07T05:47:42.755Z,99.15
2022-10-07T05:48:42.505Z,99.24
2022-10-07T05:49:42.467Z,99.24
2022-10-07T05:50:42.456Z,98.99
2022-10-07T05:51:42.441Z,98.99
2022-10-07T05:52:42.430Z,98.68
2022-10-07T05:53:42.424Z,98.48
2022-10-07T05:54:42.402Z,98.11
2022-10-07T05:56:42.381Z,98.11
2022-10-07T05:57:42.551Z,98.73
2022-10-07T05:58:42.350Z,98.63
2022-10-07T05:59:42.335Z,98.63
2022-10-07T06:00:42.323Z,98.84
2022-10-07T06:01:42.397Z,98.73
2022-10-07T06:02:42.434Z,98.63
2022-10-07T06:03:42.292Z,99.04
2022-10-07T06:04:42.300Z,98.63
2022-10-07T06:05:42.259Z,98.73
2022-10-07T06:07:42.704Z,99.24
2022-10-07T06:08:42.220Z,99.24
2022-10-07T06:09:42.206Z,98.94
2022-10-07T06:10:42.195Z,99.15
2022-10-07T06:11:42.181Z,99.10
2022-10-07T06:12:42.171Z,99.10
2022-10-07T06:13:42.157Z,98.68
2022-10-07T06:14:42.145Z,99.10
2022-10-07T06:15:42.129Z,99.06
2022-10-07T06:16:42.160Z,98.95
2022-10-07T06:18:42.092Z,98.69
2022-10-07T06:19:42.079Z,98.59
2022-10-07T06:20:42.094Z,98.65
2022-10-07T06:21:42.052Z,98.34
2022-10-07T06:22:42.048Z,97.15
2022-10-07T06:23:42.035Z,97.40
2022-10-07T06:24:42.015Z,97.25
2022-10-07T06:25:42.002Z,97.56
2022-10-07T06:26:41.991Z,97.46
2022-10-07T06:27:41.975Z,97.36
2022-10-07T06:29:41.950Z,97.52
2022-10-07T06:30:41.980Z,97.21
2022-10-07T06:31:41.925Z,97.21
2022-10-07T06:32:41.913Z,97.10
2022-10-07T06:33:42.900Z,97.21
2022-10-07T06:34:41.888Z,97.10
2022-10-07T06:35:41.877Z,97.31
2022-10-07T06:36:41.885Z,97.21
2022-10-07T06:37:41.901Z,96.96
2022-10-07T06:38:41.837Z,96.96
2022-10-07T06:40:41.811Z,96.91
2022-10-07T06:41:41.795Z,96.81
2022-10-07T06:42:41.785Z,96.71
2022-10-07T06:43:41.771Z,96.71
2022-10-07T06:44:41.763Z,96.66
2022-10-07T06:45:41.769Z,96.35
2022-10-07T06:46:41.736Z,96.25
2022-10-07T06:47:41.727Z,96.14
2022-10-07T06:48:41.711Z,96.05
2022-10-07T06:49:41.694Z,96.25
2022-10-07T06:51:41.667Z,96.10
2022-10-07T06:52:43.558Z,96.20
2022-10-07T06:53:41.642Z,96.06
2022-10-07T06:54:41.634Z,95.28
2022-10-07T06:55:41.616Z,95.38
2022-10-07T06:56:41.607Z,95.13
2022-10-07T06:57:45.575Z,94.87
2022-10-07T06:58:41.580Z,94.87
2022-10-07T06:59:41.566Z,94.87
2022-10-07T07:00:41.558Z,94.97
2022-10-07T07:02:41.648Z,94.92
2022-10-07T07:03:41.514Z,94.72
2022-10-07T07:04:41.547Z,94.92
2022-10-07T07:05:44.590Z,94.31
2022-10-07T07:06:41.477Z,94.25
2022-10-07T07:07:41.462Z,94.15
2022-10-07T07:08:41.481Z,94.36
2022-10-07T07:09:41.436Z,94.56
2022-10-07T07:10:41.427Z,94.45
2022-10-07T07:11:41.411Z,94.60
2022-10-07T07:13:43.895Z,94.70
2022-10-07T07:14:41.373Z,94.91
2022-10-07T07:15:41.358Z,95.33
2022-10-07T07:16:41.423Z,95.12
2022-10-07T07:17:41.333Z,95.12
2022-10-07T07:18:41.325Z,95.12
2022-10-07T07:19:41.307Z,95.59
2022-10-07T07:20:41.296Z,95.59
2022-10-07T07:21:41.284Z,95.55
2022-10-07T07:22:41.272Z,95.17
2022-10-07T07:24:41.272Z,95.34
2022-10-07T07:25:41.233Z,95.03
2022-10-07T07:26:41.221Z,94.83
2022-10-07T07:27:41.218Z,94.56
2022-10-07T07:28:41.298Z,94.56
2022-10-07T07:29:41.178Z,94.72
2022-10-07T07:30:41.200Z,93.12
2022-10-07T07:31:41.153Z,92.96
2022-10-07T07:32:41.141Z,94.13
2022-10-07T07:33:41.127Z,94.50
2022-10-07T07:35:41.106Z,95.38
2022-10-07T07:36:41.091Z,96.16
2022-10-07T07:37:41.074Z,95.75
2022-10-07T07:38:41.063Z,95.50
2022-10-07T07:39:41.046Z,95.19
2022-10-07T07:40:41.065Z,94.72
2022-10-07T07:41:41.026Z,94.88
2022-10-07T07:42:41.013Z,95.30
2022-10-07T07:43:40.996Z,94.88
2022-10-07T07:44:40.984Z,94.94
2022-10-07T07:46:40.958Z,94.53
2022-10-07T07:47:40.968Z,93.60
2022-10-07T07:48:40.933Z,92.52
2022-10-07T07:49:40.918Z,92.62
2022-10-07T07:50:40.907Z,92.31
2022-10-07T07:51:40.892Z,92.66
2022-10-07T07:52:40.884Z,93.79
2022-10-07T07:53:40.868Z,93.85
2022-10-07T07:54:40.856Z,93.44
2022-10-07T07:55:40.846Z,93.75
2022-10-07T07:57:40.818Z,94.69
2022-10-07T07:58:40.807Z,94.48
2022-10-07T07:59:40.794Z,94.85
2022-10-07T08:00:40.783Z,94.40
2022-10-07T08:01:40.819Z,93.48
2022-10-07T08:02:40.836Z,93.58
2022-10-07T08:03:40.743Z,93.02
2022-10-07T08:04:40.728Z,91.99
2022-10-07T08:05:40.723Z,91.69
2022-10-07T08:06:40.707Z,90.91
2022-10-07T08:08:40.678Z,89.82
2022-10-07T08:09:40.664Z,90.64
2022-10-07T08:10:40.651Z,90.75
2022-10-07T08:11:40.637Z,91.67
2022-10-07T08:12:40.670Z,92.35
2022-10-07T08:13:40.608Z,92.86
2022-10-07T08:14:40.596Z,91.90
2022-10-07T08:15:40.654Z,91.79
2022-10-07T08:16:40.571Z,92.20
2022-10-07T08:17:40.557Z,92.41
2022-10-07T08:19:40.536Z,91.58
2022-10-07T08:20:40.523Z,91.95
2022-10-07T08:21:40.511Z,91.75
2022-10-07T08:22:40.492Z,90.93
2022-10-07T08:23:40.477Z,89.70
2022-10-07T08:24:40.464Z,88.92
2022-10-07T08:25:40.450Z,90.66
2022-10-07T08:26:40.445Z,91.58
2022-10-07T08:27:40.423Z,91.79
2022-10-07T08:28:40.436Z,91.99
2022-10-07T08:30:40.461Z,91.54
2022-10-07T08:31:40.370Z,91.03
2022-10-07T08:32:40.358Z,90.93
2022-10-07T08:33:40.344Z,90.66
2022-10-07T08:34:40.331Z,89.43
2022-10-07T08:35:40.317Z,89.53
2022-10-07T08:36:40.306Z,88.24
2022-10-07T08:37:40.291Z,88.45
2022-10-07T08:38:40.282Z,89.78
2022-10-07T08:39:40.264Z,90.66
2022-10-07T08:41:40.239Z,90.21
2022-10-07T08:42:40.231Z,91.09
2022-10-07T08:43:40.214Z,90.70
2022-10-07T08:44:40.225Z,89.27
2022-10-07T08:45:40.190Z,89.49
2022-10-07T08:46:40.175Z,89.24
2022-10-07T08:47:40.165Z,87.36
2022-10-07T08:48:40.159Z,88.14
2022-10-07T08:49:40.135Z,87.38
2022-10-07T08:50:40.125Z,86.93
2022-10-07T08:52:40.100Z,84.55
2022-10-07T08:53:40.084Z,82.81
2022-10-07T08:54:40.074Z,81.79
2022-10-07T08:55:40.058Z,83.63
2022-10-07T08:56:40.048Z,84.44
2022-10-07T08:57:40.032Z,84.30
2022-10-07T08:58:40.021Z,83.89
2022-10-07T08:59:40.009Z,82.98
2022-10-07T09:00:40.031Z,82.37
2022-10-07T09:01:40.041Z,81.51
2022-10-07T09:03:39.964Z,78.72
2022-10-07T09:04:39.943Z,79.68
2022-10-07T09:05:39.927Z,81.31
2022-10-07T09:06:39.920Z,81.41
2022-10-07T09:07:39.903Z,81.27
2022-10-07T09:08:39.889Z,79.33
2022-10-07T09:09:39.874Z,78.19
2022-10-07T09:10:39.863Z,79.44
2022-10-07T09:11:39.853Z,79.08
2022-10-07T09:12:39.836Z,82.02
2022-10-07T09:14:39.808Z,84.58
2022-10-07T09:15:39.917Z,85.50
2022-10-07T09:16:39.845Z,85.87
2022-10-07T09:17:39.774Z,87.12
2022-10-07T09:18:39.757Z,85.34
2022-10-07T09:19:39.741Z,83.26
2022-10-07T09:20:39.734Z,83.48
2022-10-07T09:21:39.715Z,80.80
2022-10-07T09:22:39.703Z,80.76
2022-10-07T09:23:39.690Z,79.10
2022-10-07T09:25:39.664Z,76.75
2022-10-07T09:26:39.652Z,74.81
2022-10-07T09:27:39.638Z,71.19
2022-10-07T09:28:39.774Z,71.26
2022-10-07T09:29:39.611Z,70.99
2022-10-07T09:30:39.600Z,68.73
2022-10-07T09:31:39.588Z,69.14
2022-10-07T09:32:39.601Z,67.99
2022-10-07T09:33:39.561Z,67.05
2022-10-07T09:34:39.550Z,65.25
2022-10-07T09:36:39.523Z,65.62
2022-10-07T09:37:39.509Z,65.33
2022-10-07T09:38:39.496Z,64.56
2022-10-07T09:39:39.482Z,64.50
2022-10-07T09:40:39.472Z,63.73
2022-10-07T09:41:39.456Z,60.98
2022-10-07T09:42:39.447Z,59.05
2022-10-07T09:43:39.432Z,56.93
2022-10-07T09:44:39.423Z,56.02
2022-10-07T09:45:39.406Z,52.27
2022-10-07T09:47:39.382Z,49.59
2022-10-07T09:48:39.395Z,47.44
2022-10-07T09:49:39.357Z,48.54
2022-10-07T09:50:39.347Z,48.60
2022-10-07T09:51:39.332Z,47.08
2022-10-07T09:52:39.324Z,45.95
2022-10-07T09:53:39.308Z,46.28
2022-10-07T09:54:39.298Z,47.03
2022-10-07T09:55:39.283Z,44.50
2022-10-07T09:56:39.273Z,44.18
2022-10-07T09:58:39.249Z,45.17
2022-10-07T09:59:39.241Z,44.54
2022-10-07T10:00:39.228Z,46.56
2022-10-07T10:01:39.280Z,49.54
2022-10-07T10:02:39.290Z,49.89
2022-10-07T10:03:39.273Z,48.46
2022-10-07T10:04:39.206Z,47.17
2022-10-07T10:05:39.171Z,48.31
2022-10-07T10:06:39.155Z,51.94
2022-10-07T10:07:39.146Z,52.66
2022-10-07T10:09:39.123Z,52.81
2022-10-07T10:10:39.109Z,52.49
2022-10-07T10:11:39.102Z,51.31
2022-10-07T10:12:40.735Z,50.28
2022-10-07T10:13:39.076Z,50.26
2022-10-07T10:14:39.063Z,49.49
2022-10-07T10:15:39.075Z,48.14
2022-10-07T10:16:39.040Z,46.90
2022-10-07T10:17:39.034Z,45.73
2022-10-07T10:18:39.020Z,44.37
2022-10-07T10:20:39.021Z,42.74
2022-10-07T10:21:38.986Z,42.43
2022-10-07T10:22:38.974Z,41.83
2022-10-07T10:23:38.964Z,41.91
2022-10-07T10:24:38.951Z,41.39
2022-10-07T10:25:38.941Z,40.89
2022-10-07T10:26:38.933Z,41.29
2022-10-07T10:27:38.922Z,40.89
2022-10-07T10:28:39.009Z,40.69
2022-10-07T10:29:38.896Z,40.28
2022-10-07T10:31:38.935Z,39.53
2022-10-07T10:32:38.863Z,38.62
2022-10-07T10:33:38.852Z,37.90
2022-10-07T10:34:38.849Z,38.54
2022-10-07T10:35:38.832Z,40.75
2022-10-07T10:36:38.843Z,41.81
2022-10-07T10:37:38.811Z,40.99
2022-10-07T10:38:38.799Z,40.67
2022-10-07T10:39:38.790Z,39.64
2022-10-07T10:40:38.780Z,39.55
2022-10-07T10:42:38.756Z,39.01
2022-10-07T10:43:38.746Z,38.30
2022-10-07T10:44:38.737Z,38.94
2022-10-07T10:45:38.725Z,38.73
2022-10-07T10:46:38.772Z,39.77
2022-10-07T10:47:38.701Z,40.08
2022-10-07T10:48:38.688Z,40.38
2022-10-07T10:49:38.681Z,40.08
2022-10-07T10:50:38.665Z,39.64
2022-10-07T10:51:38.663Z,39.13
2022-10-07T10:53:38.634Z,39.15
2022-10-07T10:54:38.619Z,40.32
2022-10-07T10:55:38.611Z,41.63
2022-10-07T10:56:38.600Z,41.67
2022-10-07T10:57:38.591Z,43.10
2022-10-07T10:58:38.575Z,43.75
2022-10-07T10:59:38.566Z,43.08
2022-10-07T11:00:38.569Z,41.85
2022-10-07T11:01:38.654Z,41.79
2022-10-07T11:02:38.659Z,42.29
2022-10-07T11:04:38.514Z,41.65
